Time;durP1;ratioP1;P1;durP2;ratioP2;P2;SDS_P1;SDS_P2;PMS_P1;PMS_P2;Temp;Humidity;BMP_temperature;BMP_pressure;BME280_temperature;BME280_humidity;BME280_pressure;Samples;Min_cycle;Max_cycle;Signal;HPM_P1;HPM_P2
2021/09/12 00:02:17;;;;;;;4.80;4.13;;;25.50;56.10;;;;;;5001846;28;20198;-46
2021/09/12 00:04:43;;;;;;;5.27;4.87;;;25.50;56.00;;;;;;5006102;28;20198;-49
2021/09/12 00:07:09;;;;;;;4.03;3.73;;;25.50;56.00;;;;;;5004713;28;20201;-50
2021/09/12 00:09:34;;;;;;;5.30;3.87;;;25.50;56.70;;;;;;5000826;28;20205;-47
2021/09/12 00:12:01;;;;;;;5.67;5.17;;;25.50;56.20;;;;;;5001784;28;20194;-46
2021/09/12 00:14:27;;;;;;;5.23;4.83;;;25.50;56.10;;;;;;5003841;28;20636;-46
2021/09/12 00:16:52;;;;;;;4.43;4.07;;;25.50;56.00;;;;;;5003334;28;20445;-46
2021/09/12 00:19:18;;;;;;;4.90;4.37;;;25.40;56.00;;;;;;5003692;28;20456;-50
2021/09/12 00:21:44;;;;;;;4.70;4.30;;;25.40;55.90;;;;;;5002365;28;20202;-47
2021/09/12 00:24:10;;;;;;;4.50;4.10;;;25.40;56.00;;;;;;5003990;28;20283;-46
2021/09/12 00:26:36;;;;;;;9.17;4.97;;;25.40;56.30;;;;;;5004669;28;20564;-46
2021/09/12 00:29:02;;;;;;;6.70;4.70;;;25.40;56.30;;;;;;5011117;28;20193;-46
2021/09/12 00:31:28;;;;;;;4.77;4.37;;;25.40;56.50;;;;;;5008074;28;20669;-46
2021/09/12 00:33:53;;;;;;;4.10;3.80;;;25.40;56.30;;;;;;5011272;28;20660;-46
2021/09/12 00:36:19;;;;;;;5.20;4.23;;;25.40;56.20;;;;;;5011191;28;20668;-48
2021/09/12 00:38:44;;;;;;;3.90;3.50;;;25.40;56.30;;;;;;5011535;28;20201;-49
2021/09/12 00:41:10;;;;;;;4.57;4.17;;;25.40;56.20;;;;;;5003607;28;20201;-47
2021/09/12 00:43:36;;;;;;;4.83;4.43;;;25.40;56.20;;;;;;5004825;28;20660;-48
2021/09/12 00:46:06;;;;;;;4.20;3.90;;;25.30;56.20;;;;;;5011751;28;20657;-49
2021/09/12 00:48:33;;;;;;;5.07;4.30;;;25.30;56.30;;;;;;5003038;28;20198;-48
2021/09/12 00:50:58;;;;;;;4.93;4.20;;;25.20;56.60;;;;;;5008002;28;20445;-48
2021/09/12 00:53:25;;;;;;;5.50;3.77;;;25.20;56.80;;;;;;5007698;28;20448;-48
2021/09/12 00:55:53;;;;;;;4.30;3.90;;;25.00;57.00;;;;;;5006469;28;20202;-46
2021/09/12 00:58:21;;;;;;;4.77;4.30;;;25.10;56.90;;;;;;5008649;28;20984;-47
2021/09/12 01:00:46;;;;;;;4.30;4.00;;;25.10;56.60;;;;;;5010480;28;20455;-46
2021/09/12 01:03:12;;;;;;;5.23;3.20;;;25.20;56.60;;;;;;5005272;28;20453;-46
2021/09/12 01:05:38;;;;;;;5.57;4.00;;;25.20;56.30;;;;;;5005821;28;20257;-50
2021/09/12 01:08:07;;;;;;;4.30;3.90;;;25.20;56.20;;;;;;5008839;28;20721;-47
2021/09/12 01:10:33;;;;;;;6.90;4.07;;;25.20;56.10;;;;;;5009109;28;20437;-47
2021/09/12 01:12:58;;;;;;;5.57;3.60;;;25.20;56.10;;;;;;5007083;28;20441;-46
2021/09/12 01:15:24;;;;;;;4.23;3.87;;;25.10;56.10;;;;;;5007899;28;20495;-47
2021/09/12 01:17:50;;;;;;;3.97;3.67;;;25.20;56.00;;;;;;5010377;28;20194;-47
2021/09/12 01:20:15;;;;;;;4.80;4.30;;;25.10;56.10;;;;;;5009974;28;20317;-50
2021/09/12 01:22:41;;;;;;;4.07;3.67;;;25.00;56.00;;;;;;5005802;28;20202;-48
2021/09/12 01:25:07;;;;;;;4.67;4.27;;;25.00;56.30;;;;;;5009882;28;20201;-47
2021/09/12 01:27:33;;;;;;;4.10;3.70;;;25.00;56.00;;;;;;5009736;28;20194;-49
2021/09/12 01:30:03;;;;;;;25.80;4.00;;;25.00;56.20;;;;;;5013437;28;20448;-50
2021/09/12 01:32:28;;;;;;;3.40;3.20;;;24.90;56.30;;;;;;5007081;28;20281;-50
2021/09/12 01:34:54;;;;;;;4.57;4.17;;;25.00;56.10;;;;;;5010439;28;20545;-46
2021/09/12 01:37:20;;;;;;;5.30;3.33;;;24.90;55.90;;;;;;5010942;28;20190;-48
2021/09/12 01:39:45;;;;;;;5.77;4.37;;;24.90;55.80;;;;;;5009856;28;20280;-47
2021/09/12 01:42:11;;;;;;;3.63;3.40;;;24.90;55.90;;;;;;5008261;28;20213;-50
2021/09/12 01:44:36;;;;;;;4.57;4.27;;;24.90;55.80;;;;;;5005147;28;20239;-46
2021/09/12 01:47:02;;;;;;;4.03;3.73;;;24.90;56.00;;;;;;5008764;28;20261;-46
2021/09/12 01:49:28;;;;;;;3.53;3.33;;;24.90;55.70;;;;;;5004478;28;20194;-50
2021/09/12 01:51:54;;;;;;;3.17;2.97;;;24.90;55.70;;;;;;5006074;28;20218;-48
2021/09/12 01:54:20;;;;;;;3.87;3.57;;;24.80;55.80;;;;;;5004412;28;20610;-50
2021/09/12 01:56:46;;;;;;;3.90;3.60;;;24.90;55.80;;;;;;4999028;28;20194;-46
2021/09/12 01:59:11;;;;;;;3.87;3.57;;;24.80;55.80;;;;;;5004159;28;20472;-46
2021/09/12 02:01:37;;;;;;;3.80;3.50;;;24.80;56.00;;;;;;5003105;28;20452;-47
2021/09/12 02:04:03;;;;;;;3.60;3.30;;;24.80;56.10;;;;;;5003562;28;20195;-51
2021/09/12 02:06:28;;;;;;;3.60;3.40;;;24.80;55.80;;;;;;5000786;28;20241;-47
2021/09/12 02:08:54;;;;;;;3.80;3.50;;;24.70;55.90;;;;;;5005652;28;20202;-47
2021/09/12 02:11:20;;;;;;;4.13;3.73;;;24.70;56.00;;;;;;5004332;28;20217;-46
2021/09/12 02:13:46;;;;;;;4.10;3.80;;;24.70;55.90;;;;;;5007024;28;20194;-46
2021/09/12 02:16:12;;;;;;;4.83;3.30;;;24.70;55.60;;;;;;5005738;28;20456;-48
2021/09/12 02:18:38;;;;;;;4.40;3.37;;;24.80;55.70;;;;;;5005980;28;20194;-46
2021/09/12 02:21:03;;;;;;;3.50;3.30;;;24.70;55.60;;;;;;5001686;28;20297;-49
2021/09/12 02:23:29;;;;;;;4.00;3.50;;;24.70;55.60;;;;;;5003245;28;20194;-51
2021/09/12 02:25:55;;;;;;;3.47;3.17;;;24.70;55.60;;;;;;5006068;28;20198;-47
2021/09/12 02:28:20;;;;;;;3.60;3.30;;;24.60;55.80;;;;;;5004478;28;20677;-48
2021/09/12 02:30:46;;;;;;;3.40;3.20;;;24.70;55.60;;;;;;5002393;28;20198;-46
2021/09/12 02:33:12;;;;;;;3.10;2.90;;;24.70;55.70;;;;;;5006727;28;20210;-47
2021/09/12 02:35:38;;;;;;;3.43;3.23;;;24.60;55.70;;;;;;5003211;28;20236;-47
2021/09/12 02:38:03;;;;;;;3.97;3.67;;;24.60;55.60;;;;;;5005559;28;20285;-46
2021/09/12 02:40:29;;;;;;;3.30;3.10;;;24.60;55.60;;;;;;5008156;28;20197;-47
2021/09/12 02:42:55;;;;;;;3.33;2.63;;;24.50;55.40;;;;;;5007336;28;20206;-46
2021/09/12 02:45:21;;;;;;;3.10;2.90;;;24.50;55.70;;;;;;5007084;28;20754;-46
2021/09/12 02:47:46;;;;;;;3.40;2.90;;;24.50;55.70;;;;;;5007420;28;20455;-46
2021/09/12 02:50:12;;;;;;;2.80;2.60;;;24.50;55.40;;;;;;5008583;28;20265;-46
2021/09/12 02:52:37;;;;;;;2.63;2.43;;;24.50;55.40;;;;;;5004652;28;20198;-46
2021/09/12 02:55:05;;;;;;;4.37;2.70;;;24.40;55.40;;;;;;5006086;28;20280;-47
2021/09/12 02:57:31;;;;;;;3.40;3.20;;;24.40;55.50;;;;;;5006644;28;20252;-47
2021/09/12 02:59:57;;;;;;;3.20;3.00;;;24.30;55.70;;;;;;5006697;28;20441;-46
2021/09/12 03:02:23;;;;;;;3.03;2.73;;;24.40;55.60;;;;;;5011176;28;20277;-49
2021/09/12 03:04:48;;;;;;;3.07;2.87;;;24.30;55.40;;;;;;5004888;28;20524;-46
2021/09/12 03:07:14;;;;;;;3.33;3.07;;;24.30;55.30;;;;;;5003447;28;20595;-50
2021/09/12 03:09:39;;;;;;;4.03;3.30;;;24.40;55.50;;;;;;5001964;28;20842;-48
2021/09/12 03:12:05;;;;;;;3.03;2.83;;;24.30;55.30;;;;;;5007945;28;20200;-46
2021/09/12 03:14:31;;;;;;;3.07;2.87;;;24.30;55.40;;;;;;5005210;28;20305;-50
2021/09/12 03:16:57;;;;;;;3.27;3.07;;;24.30;55.10;;;;;;5007357;28;20535;-46
2021/09/12 03:19:22;;;;;;;3.70;3.40;;;24.30;54.90;;;;;;5006608;28;20194;-47
2021/09/12 03:21:48;;;;;;;3.30;3.10;;;24.30;55.30;;;;;;5006667;28;20205;-51
2021/09/12 03:24:13;;;;;;;3.10;2.90;;;24.30;55.00;;;;;;5012263;28;20201;-49
2021/09/12 03:26:39;;;;;;;2.90;2.70;;;24.20;55.10;;;;;;5010551;28;20216;-49
2021/09/12 03:29:04;;;;;;;3.67;3.03;;;24.10;55.00;;;;;;5006715;28;20650;-49
2021/09/12 03:31:30;;;;;;;3.30;3.10;;;24.10;55.30;;;;;;5007062;28;20222;-47
2021/09/12 03:33:56;;;;;;;4.60;3.50;;;24.10;55.30;;;;;;5002921;28;20280;-48
2021/09/12 03:36:21;;;;;;;3.13;2.93;;;24.10;55.30;;;;;;5005969;28;20597;-47
2021/09/12 03:38:47;;;;;;;2.87;2.67;;;24.10;55.10;;;;;;5003348;28;20187;-52
2021/09/12 03:41:12;;;;;;;3.10;2.90;;;24.10;55.20;;;;;;4999949;28;20225;-51
2021/09/12 03:43:38;;;;;;;2.90;2.70;;;24.10;55.50;;;;;;5000714;28;20205;-46
2021/09/12 03:46:04;;;;;;;3.40;3.10;;;24.10;55.30;;;;;;4999726;28;20194;-45
2021/09/12 03:48:29;;;;;;;3.40;3.17;;;24.10;55.30;;;;;;4997602;28;20598;-47
2021/09/12 03:50:55;;;;;;;3.17;2.97;;;24.10;55.40;;;;;;5000330;28;20189;-51
2021/09/12 03:53:21;;;;;;;2.93;2.73;;;24.10;55.30;;;;;;5009844;28;20259;-50
2021/09/12 03:55:46;;;;;;;3.00;2.80;;;24.10;55.10;;;;;;5007705;28;20312;-49
2021/09/12 03:58:12;;;;;;;2.93;2.73;;;24.00;55.20;;;;;;5006352;28;20249;-46
2021/09/12 04:00:38;;;;;;;2.77;2.57;;;24.10;55.30;;;;;;5004423;28;20226;-51
2021/09/12 04:03:03;;;;;;;3.03;2.83;;;24.10;55.50;;;;;;5006212;28;20197;-50
2021/09/12 04:05:29;;;;;;;2.93;2.70;;;24.10;55.30;;;;;;5008327;28;20216;-50
2021/09/12 04:07:55;;;;;;;3.90;3.60;;;24.10;55.40;;;;;;5004483;28;20252;-47
2021/09/12 04:10:21;;;;;;;4.40;4.10;;;24.20;55.20;;;;;;5010162;28;20197;-46
2021/09/12 04:12:46;;;;;;;5.10;4.60;;;24.30;54.70;;;;;;4999420;28;20912;-51
2021/09/12 04:15:12;;;;;;;4.50;4.10;;;24.30;55.00;;;;;;5002756;28;20317;-50
2021/09/12 04:17:37;;;;;;;3.97;3.67;;;24.20;54.60;;;;;;5004238;28;20240;-47
2021/09/12 04:20:04;;;;;;;3.77;3.40;;;24.20;54.90;;;;;;5002088;28;20308;-46
2021/09/12 04:22:30;;;;;;;4.10;3.37;;;24.10;55.20;;;;;;5004720;28;20198;-47
2021/09/12 04:24:56;;;;;;;3.20;3.00;;;24.00;55.30;;;;;;5004236;28;20448;-47
2021/09/12 04:27:22;;;;;;;3.90;3.50;;;24.00;55.80;;;;;;5001215;28;20444;-46
2021/09/12 04:29:48;;;;;;;3.13;2.93;;;24.00;55.60;;;;;;5002698;28;20969;-45
2021/09/12 04:32:13;;;;;;;2.97;2.77;;;24.00;55.70;;;;;;5002968;28;20677;-46
2021/09/12 04:34:39;;;;;;;4.07;3.50;;;23.90;56.00;;;;;;5001565;28;20607;-47
2021/09/12 04:37:05;;;;;;;4.10;3.80;;;23.90;56.10;;;;;;5002860;28;20209;-47
2021/09/12 04:39:31;;;;;;;4.30;4.00;;;23.90;56.00;;;;;;5002024;28;20201;-46
2021/09/12 04:41:56;;;;;;;3.23;3.03;;;23.90;56.20;;;;;;5006667;28;20448;-45
2021/09/12 04:44:22;;;;;;;5.67;4.40;;;23.70;56.30;;;;;;5001879;28;20286;-49
2021/09/12 04:46:47;;;;;;;4.20;3.90;;;23.50;56.40;;;;;;5005398;28;20263;-47
2021/09/12 04:49:13;;;;;;;3.80;3.50;;;23.50;57.00;;;;;;5003612;28;20202;-46
2021/09/12 04:51:38;;;;;;;4.80;4.50;;;23.50;57.00;;;;;;5005598;28;20208;-47
2021/09/12 04:54:04;;;;;;;3.77;3.47;;;23.50;57.00;;;;;;5003072;28;20222;-45
2021/09/12 04:56:29;;;;;;;5.53;4.17;;;23.30;56.80;;;;;;5001478;28;20190;-46
2021/09/12 04:58:55;;;;;;;5.07;3.73;;;23.20;57.10;;;;;;5003123;28;20601;-46
2021/09/12 05:01:21;;;;;;;3.53;3.23;;;23.20;57.70;;;;;;5005058;28;20198;-45
2021/09/12 05:03:46;;;;;;;3.40;3.20;;;23.00;57.30;;;;;;5004312;28;20190;-47
2021/09/12 05:06:12;;;;;;;3.93;3.63;;;22.90;58.90;;;;;;5003114;28;20201;-45
2021/09/12 05:08:38;;;;;;;4.63;4.33;;;23.00;58.90;;;;;;5000484;28;20201;-46
2021/09/12 05:11:03;;;;;;;4.63;4.23;;;23.10;58.30;;;;;;5005773;28;20190;-47
2021/09/12 05:13:29;;;;;;;5.40;5.00;;;23.20;57.50;;;;;;5002533;28;20217;-45
2021/09/12 05:15:54;;;;;;;4.80;4.40;;;23.10;58.10;;;;;;5004829;28;20296;-51
2021/09/12 05:18:20;;;;;;;4.70;4.30;;;22.80;58.90;;;;;;5008196;28;20320;-51
2021/09/12 05:20:46;;;;;;;4.97;4.53;;;22.60;58.60;;;;;;5008706;28;20285;-52
2021/09/12 05:23:12;;;;;;;7.70;5.43;;;22.50;59.10;;;;;;5005629;28;20433;-51
2021/09/12 05:25:38;;;;;;;5.83;3.63;;;22.50;58.80;;;;;;5007053;28;20198;-48
2021/09/12 05:28:03;;;;;;;9.07;4.70;;;22.40;59.70;;;;;;5008460;28;20560;-50
2021/09/12 05:30:29;;;;;;;4.77;4.47;;;22.40;59.80;;;;;;5008034;28;20283;-52
2021/09/12 05:32:55;;;;;;;5.13;4.63;;;22.50;59.20;;;;;;5006909;28;20663;-52
2021/09/12 05:35:20;;;;;;;4.13;3.83;;;22.50;59.10;;;;;;5007768;28;20233;-50
2021/09/12 05:37:46;;;;;;;4.50;4.20;;;22.70;58.90;;;;;;5004333;28;20206;-51
2021/09/12 05:40:13;;;;;;;10.03;4.77;;;22.70;59.10;;;;;;5007536;28;20213;-52
2021/09/12 05:42:39;;;;;;;4.00;3.20;;;22.80;58.20;;;;;;5005625;28;20725;-51
2021/09/12 05:45:07;;;;;;;4.90;3.73;;;22.80;58.90;;;;;;5007334;28;20437;-47
2021/09/12 05:47:33;;;;;;;4.50;4.20;;;22.90;58.50;;;;;;5001906;28;20535;-47
2021/09/12 05:49:59;;;;;;;5.13;4.67;;;23.00;58.00;;;;;;5004343;28;20588;-46
2021/09/12 05:52:24;;;;;;;4.50;4.17;;;23.00;57.90;;;;;;5005983;28;20190;-47
2021/09/12 05:54:50;;;;;;;4.73;4.43;;;23.10;57.80;;;;;;5007773;28;20642;-45
2021/09/12 05:57:16;;;;;;;5.13;4.63;;;23.10;57.50;;;;;;5004046;28;20198;-48
2021/09/12 05:59:41;;;;;;;5.80;4.57;;;23.10;57.40;;;;;;5013138;28;20197;-46
2021/09/12 06:02:08;;;;;;;4.50;4.20;;;23.00;57.70;;;;;;5011374;28;20205;-46
2021/09/12 06:04:33;;;;;;;6.63;6.03;;;23.00;57.70;;;;;;5008671;28;20193;-47
2021/09/12 06:06:59;;;;;;;4.33;4.03;;;22.80;58.30;;;;;;5011543;28;21006;-46
2021/09/12 06:09:25;;;;;;;5.80;5.33;;;22.60;59.10;;;;;;5013231;28;20217;-47
2021/09/12 06:11:51;;;;;;;30.00;7.77;;;22.70;58.80;;;;;;5013621;28;20224;-45
2021/09/12 06:14:18;;;;;;;15.53;6.17;;;22.60;58.60;;;;;;5010544;28;20633;-46
2021/09/12 06:16:43;;;;;;;27.43;6.60;;;22.50;58.80;;;;;;5010014;28;20701;-46
2021/09/12 06:19:09;;;;;;;7.20;4.90;;;21.70;60.10;;;;;;5007731;28;20445;-45
2021/09/12 06:21:34;;;;;;;5.33;4.93;;;21.50;62.30;;;;;;5001305;28;20275;-45
2021/09/12 06:24:00;;;;;;;7.23;6.13;;;21.50;61.40;;;;;;5001419;28;20202;-46
2021/09/12 06:26:26;;;;;;;9.27;5.17;;;21.30;62.20;;;;;;5011198;28;20189;-46
2021/09/12 06:28:53;;;;;;;4.50;4.10;;;20.90;63.80;;;;;;5011037;28;20197;-46
2021/09/12 06:31:19;;;;;;;5.50;5.00;;;20.90;64.80;;;;;;5010556;28;20527;-46
2021/09/12 06:33:45;;;;;;;10.47;5.27;;;21.30;63.70;;;;;;5009535;28;20537;-46
2021/09/12 06:36:10;;;;;;;9.33;5.20;;;21.70;62.60;;;;;;5012006;28;20543;-45
2021/09/12 06:38:36;;;;;;;5.27;4.77;;;21.60;62.00;;;;;;5001829;28;20288;-46
2021/09/12 06:41:03;;;;;;;4.80;4.40;;;21.60;62.70;;;;;;5010761;28;20190;-46
2021/09/12 06:43:28;;;;;;;5.03;4.63;;;21.70;62.50;;;;;;5010237;28;20536;-48
2021/09/12 06:45:54;;;;;;;6.67;6.07;;;21.80;61.70;;;;;;5005601;28;20520;-46
2021/09/12 06:48:20;;;;;;;5.37;4.97;;;21.60;62.40;;;;;;5003145;28;20187;-48
2021/09/12 06:50:46;;;;;;;6.27;5.70;;;21.40;63.10;;;;;;4999311;28;20198;-46
2021/09/12 06:53:12;;;;;;;6.63;5.67;;;21.40;63.60;;;;;;5011379;28;20646;-46
2021/09/12 06:55:39;;;;;;;5.57;5.17;;;21.60;62.80;;;;;;5012750;28;20256;-47
2021/09/12 06:58:04;;;;;;;6.23;5.73;;;21.60;63.20;;;;;;4999240;28;20560;-46
2021/09/12 07:00:31;;;;;;;5.30;4.90;;;21.40;63.30;;;;;;5005331;28;21000;-46
2021/09/12 07:02:57;;;;;;;6.20;5.70;;;21.20;64.00;;;;;;4997004;28;20244;-46
2021/09/12 07:05:23;;;;;;;5.50;5.00;;;20.80;65.30;;;;;;5005950;28;20437;-46
2021/09/12 07:07:49;;;;;;;8.37;7.57;;;20.80;66.20;;;;;;5006791;28;20452;-48
2021/09/12 07:10:15;;;;;;;5.73;5.30;;;20.90;65.80;;;;;;5012818;28;20197;-51
2021/09/12 07:12:41;;;;;;;5.10;4.70;;;21.00;65.60;;;;;;5005011;28;20557;-46
2021/09/12 07:15:07;;;;;;;6.27;5.77;;;21.20;65.60;;;;;;5009537;28;20224;-46
2021/09/12 07:17:32;;;;;;;5.20;4.80;;;21.30;65.00;;;;;;5007652;28;20973;-47
2021/09/12 07:19:58;;;;;;;7.10;6.50;;;21.50;64.50;;;;;;5011940;28;20439;-47
2021/09/12 07:22:23;;;;;;;5.77;5.30;;;21.70;64.20;;;;;;5007907;28;20195;-47
2021/09/12 07:24:49;;;;;;;5.73;5.33;;;21.80;63.90;;;;;;5005493;28;20614;-46
2021/09/12 07:27:14;;;;;;;6.87;6.27;;;22.10;63.80;;;;;;5009791;28;20705;-46
2021/09/12 07:29:40;;;;;;;6.50;5.97;;;22.40;63.60;;;;;;5008975;28;20209;-46
2021/09/12 07:32:06;;;;;;;5.57;5.17;;;22.70;62.30;;;;;;5003868;28;20201;-47
2021/09/12 07:34:32;;;;;;;5.60;5.10;;;22.50;61.20;;;;;;4998467;28;20666;-47
2021/09/12 07:36:57;;;;;;;4.83;4.43;;;22.40;63.00;;;;;;5009349;28;20444;-47
2021/09/12 07:39:23;;;;;;;4.57;4.23;;;22.70;62.70;;;;;;5009842;28;20272;-46
2021/09/12 07:41:48;;;;;;;6.17;5.57;;;23.00;61.70;;;;;;5003992;28;20282;-46
2021/09/12 07:44:14;;;;;;;4.63;3.23;;;23.20;61.00;;;;;;5005644;28;20637;-47
2021/09/12 07:46:39;;;;;;;5.73;5.20;;;23.40;60.40;;;;;;5007261;28;20232;-45
2021/09/12 07:49:05;;;;;;;5.40;4.90;;;23.60;59.50;;;;;;5011215;28;20197;-46
2021/09/12 07:51:31;;;;;;;5.20;4.60;;;23.70;59.10;;;;;;5012363;28;20218;-45
2021/09/12 07:53:56;;;;;;;4.90;4.50;;;23.90;58.70;;;;;;5011140;28;20285;-46
2021/09/12 07:56:22;;;;;;;5.60;5.10;;;23.80;58.90;;;;;;5003611;28;20194;-47
2021/09/12 07:58:47;;;;;;;4.90;4.50;;;23.90;58.60;;;;;;5010715;28;20242;-46
2021/09/12 08:01:15;;;;;;;5.60;5.17;;;23.90;58.50;;;;;;5007017;28;20191;-46
2021/09/12 08:03:40;;;;;;;5.70;5.30;;;24.00;58.40;;;;;;4995213;28;20202;-46
2021/09/12 08:06:06;;;;;;;6.20;5.60;;;24.30;58.10;;;;;;5008377;28;20434;-46
2021/09/12 08:08:31;;;;;;;5.10;4.70;;;24.40;57.10;;;;;;5000534;28;20260;-45
2021/09/12 08:10:57;;;;;;;4.83;4.47;;;24.20;57.70;;;;;;4993815;28;20222;-47
2021/09/12 08:13:22;;;;;;;4.70;4.40;;;24.30;57.60;;;;;;4993276;28;20193;-46
2021/09/12 08:15:48;;;;;;;5.77;5.27;;;24.50;57.90;;;;;;5009784;28;20693;-47
2021/09/12 08:18:14;;;;;;;4.70;4.40;;;24.70;57.30;;;;;;5010576;28;20208;-46
2021/09/12 08:20:39;;;;;;;4.80;4.40;;;24.90;56.90;;;;;;5011385;28;20220;-45
2021/09/12 08:23:05;;;;;;;6.20;5.70;;;25.10;56.80;;;;;;5001795;28;20202;-45
2021/09/12 08:25:30;;;;;;;5.10;4.70;;;25.00;56.30;;;;;;5010037;28;20193;-46
2021/09/12 08:27:56;;;;;;;5.67;5.27;;;25.20;55.60;;;;;;5000510;28;20198;-46
2021/09/12 08:30:22;;;;;;;6.13;5.00;;;25.10;55.50;;;;;;4993912;28;20198;-45
2021/09/12 08:32:47;;;;;;;5.90;5.50;;;25.20;55.50;;;;;;4992156;28;20305;-46
2021/09/12 08:35:13;;;;;;;4.70;4.30;;;25.30;55.20;;;;;;5008386;28;20372;-45
2021/09/12 08:37:39;;;;;;;5.20;4.80;;;25.50;54.90;;;;;;5010803;28;20190;-45
2021/09/12 08:40:06;;;;;;;4.63;4.30;;;25.40;54.30;;;;;;5006667;28;20677;-46
2021/09/12 08:42:32;;;;;;;3.93;3.60;;;25.40;54.90;;;;;;4993236;28;20190;-45
2021/09/12 08:44:58;;;;;;;4.50;4.10;;;25.60;54.90;;;;;;5011581;28;20475;-48
2021/09/12 08:47:26;;;;;;;4.40;4.10;;;25.80;53.90;;;;;;5011425;28;20851;-47
2021/09/12 08:49:52;;;;;;;3.87;3.57;;;25.90;52.80;;;;;;5013446;28;20452;-46
2021/09/12 08:52:18;;;;;;;4.60;4.20;;;26.10;52.60;;;;;;5015538;28;20436;-47
2021/09/12 08:54:43;;;;;;;3.83;3.60;;;26.10;52.50;;;;;;5007990;28;20317;-45
2021/09/12 08:57:09;;;;;;;4.23;3.93;;;26.10;52.20;;;;;;5001552;28;20208;-47
2021/09/12 08:59:35;;;;;;;4.00;3.70;;;26.30;51.90;;;;;;5005824;28;20222;-46
2021/09/12 09:02:05;;;;;;;3.60;3.30;;;26.50;50.90;;;;;;5013767;28;20346;-46
2021/09/12 09:04:35;;;;;;;3.90;3.60;;;26.70;51.00;;;;;;5008981;28;20957;-47
2021/09/12 09:07:09;;;;;;;5.00;4.60;;;26.80;49.80;;;;;;5004762;28;20806;-46
2021/09/12 09:09:47;;;;;;;3.53;3.17;;;26.90;49.30;;;;;;5014305;28;20519;-48
2021/09/12 09:12:23;;;;;;;3.70;3.40;;;27.00;49.70;;;;;;5015297;28;20486;-46
2021/09/12 09:15:20;;;;;;;4.13;3.83;;;27.20;48.60;;;;;;5011749;28;20538;-46
2021/09/12 09:17:57;;;;;;;3.30;3.00;;;27.40;49.00;;;;;;5014308;28;20433;-47
2021/09/12 09:20:34;;;;;;;2.63;2.43;;;27.50;48.60;;;;;;4995657;28;20441;-46
2021/09/12 09:23:05;;;;;;;3.00;2.80;;;27.60;47.90;;;;;;4996018;28;21049;-45
2021/09/12 09:25:32;;;;;;;3.17;2.97;;;27.80;47.50;;;;;;5009886;28;20932;-48
2021/09/12 09:28:06;;;;;;;2.63;2.43;;;28.00;47.00;;;;;;5011845;28;20841;-46
2021/09/12 09:30:37;;;;;;;3.03;2.83;;;28.10;47.30;;;;;;5012333;28;20874;-47
2021/09/12 09:33:23;;;;;;;3.17;2.93;;;28.20;46.20;;;;;;5012972;28;20490;-48
2021/09/12 09:35:51;;;;;;;3.00;2.80;;;28.20;46.50;;;;;;5006207;28;20492;-46
2021/09/12 09:38:18;;;;;;;2.30;2.20;;;28.30;46.90;;;;;;5006089;28;20436;-52
2021/09/12 09:41:11;;;;;;;4.10;2.67;;;28.50;45.10;;;;;;5007177;28;20964;-50
2021/09/12 09:43:49;;;;;;;2.73;2.53;;;28.60;45.60;;;;;;5008289;28;20448;-46
2021/09/12 09:46:34;;;;;;;2.23;2.10;;;28.70;44.60;;;;;;5012790;28;20813;-48
2021/09/12 09:49:18;;;;;;;3.40;2.70;;;28.90;44.50;;;;;;5003892;28;20456;-50
2021/09/12 09:51:46;;;;;;;3.50;2.30;;;29.00;44.90;;;;;;5010877;28;20463;-46
2021/09/12 09:54:12;;;;;;;2.43;2.23;;;29.10;43.90;;;;;;5011156;28;20473;-46
2021/09/12 09:56:38;;;;;;;1.87;1.77;;;29.20;44.20;;;;;;5000238;28;20842;-45
2021/09/12 09:59:04;;;;;;;2.90;2.40;;;29.30;44.30;;;;;;5007828;28;20588;-50
2021/09/12 10:01:30;;;;;;;1.97;1.87;;;29.50;44.40;;;;;;5009684;28;20524;-46
2021/09/12 10:03:57;;;;;;;1.80;1.70;;;29.70;42.90;;;;;;5001768;28;20190;-49
2021/09/12 10:06:24;;;;;;;2.13;1.93;;;29.90;41.90;;;;;;5012847;28;20483;-46
2021/09/12 10:08:50;;;;;;;1.57;1.47;;;30.10;39.30;;;;;;5001877;28;20470;-47
2021/09/12 10:11:16;;;;;;;1.53;1.43;;;30.10;40.30;;;;;;5010939;28;20823;-47
2021/09/12 10:13:43;;;;;;;2.53;1.40;;;30.20;39.30;;;;;;5009946;28;20221;-51
2021/09/12 10:16:10;;;;;;;2.47;2.17;;;30.30;40.00;;;;;;5011719;28;20495;-46
2021/09/12 10:18:38;;;;;;;1.70;1.60;;;30.40;37.80;;;;;;5011879;28;20429;-46
2021/09/12 10:21:22;;;;;;;2.03;1.90;;;30.30;39.90;;;;;;5011267;28;20920;-46
2021/09/12 10:23:58;;;;;;;4.73;3.67;;;30.50;39.50;;;;;;5007381;28;20433;-46
2021/09/12 10:26:32;;;;;;;3.00;2.47;;;30.70;39.40;;;;;;5011553;28;20448;-48
2021/09/12 10:28:58;;;;;;;2.50;2.30;;;30.70;39.00;;;;;;5011614;28;20453;-48
2021/09/12 10:31:26;;;;;;;2.20;1.87;;;30.80;38.20;;;;;;5011147;28;20975;-47
2021/09/12 10:34:13;;;;;;;2.47;2.30;;;30.70;38.00;;;;;;5004540;28;20565;-46
2021/09/12 10:36:41;;;;;;;2.00;1.90;;;30.80;38.40;;;;;;5008616;28;20441;-48
2021/09/12 10:39:26;;;;;;;3.40;2.20;;;30.70;37.70;;;;;;5011329;28;20444;-46
2021/09/12 10:42:11;;;;;;;3.10;2.80;;;30.70;37.30;;;;;;5010965;28;20445;-46
2021/09/12 10:44:37;;;;;;;2.17;1.97;;;30.90;38.00;;;;;;5010414;28;20913;-46
2021/09/12 10:47:07;;;;;;;3.47;2.70;;;31.00;36.20;;;;;;5012253;28;20527;-46
2021/09/12 10:49:33;;;;;;;1.70;1.60;;;31.00;37.10;;;;;;5012583;28;20216;-46
2021/09/12 10:51:59;;;;;;;1.83;1.73;;;31.20;35.50;;;;;;5006108;28;20425;-46
2021/09/12 10:54:25;;;;;;;4.60;1.83;;;31.20;37.00;;;;;;4997855;28;20464;-45
2021/09/12 10:57:10;;;;;;;1.90;1.70;;;31.30;36.50;;;;;;5006846;28;20259;-47
2021/09/12 10:59:36;;;;;;;3.53;2.20;;;31.40;37.40;;;;;;5008344;28;20230;-46
2021/09/12 11:02:02;;;;;;;1.40;1.30;;;31.60;37.10;;;;;;5002659;28;20500;-49
2021/09/12 11:04:30;;;;;;;2.00;1.90;;;31.90;36.30;;;;;;5010222;28;20649;-48
2021/09/12 11:07:04;;;;;;;1.70;1.37;;;31.90;35.10;;;;;;5009439;28;20634;-46
2021/09/12 11:09:30;;;;;;;4.23;1.70;;;31.90;35.00;;;;;;5005679;28;20438;-47
2021/09/12 11:12:01;;;;;;;1.90;1.80;;;31.90;34.90;;;;;;5003442;28;20429;-46
2021/09/12 11:14:29;;;;;;;3.43;1.50;;;31.90;35.40;;;;;;4992462;28;20853;-51
2021/09/12 11:17:07;;;;;;;2.00;1.77;;;31.70;35.10;;;;;;5003694;28;20588;-46
2021/09/12 11:19:33;;;;;;;1.97;1.87;;;31.80;36.10;;;;;;4997423;28;20499;-51
2021/09/12 11:22:00;;;;;;;1.50;1.40;;;31.90;36.20;;;;;;4997778;28;20953;-48
2021/09/12 11:24:27;;;;;;;2.57;1.80;;;31.90;36.30;;;;;;5010027;28;20273;-47
2021/09/12 11:26:56;;;;;;;2.23;1.70;;;32.10;35.20;;;;;;5002666;28;20440;-49
2021/09/12 11:29:23;;;;;;;1.93;1.83;;;32.10;35.80;;;;;;5007505;28;20495;-46
2021/09/12 11:31:58;;;;;;;1.70;1.60;;;32.30;35.80;;;;;;4994973;28;20442;-46
2021/09/12 11:34:24;;;;;;;1.60;1.50;;;32.40;34.70;;;;;;5003060;28;20993;-46
2021/09/12 11:36:56;;;;;;;1.73;1.63;;;32.50;35.20;;;;;;5001354;28;20429;-46
2021/09/12 11:39:25;;;;;;;1.67;1.57;;;32.60;35.30;;;;;;5010691;28;20437;-46
2021/09/12 11:41:52;;;;;;;1.60;1.40;;;32.70;34.70;;;;;;5008645;28;20437;-46
2021/09/12 11:44:18;;;;;;;1.93;1.63;;;32.70;34.40;;;;;;5007389;28;20797;-48
2021/09/12 11:46:49;;;;;;;2.63;1.90;;;32.80;34.80;;;;;;4997307;28;20471;-46
2021/09/12 11:49:16;;;;;;;1.50;1.40;;;32.90;34.70;;;;;;5001720;28;20640;-46
2021/09/12 11:51:45;;;;;;;1.63;1.53;;;32.90;34.40;;;;;;5009540;28;20436;-46
2021/09/12 11:54:31;;;;;;;1.80;1.70;;;33.00;34.50;;;;;;4997439;28;20484;-46
2021/09/12 11:56:58;;;;;;;1.57;1.47;;;33.10;32.40;;;;;;4999338;28;20442;-49
2021/09/12 11:59:25;;;;;;;1.27;1.27;;;33.00;32.90;;;;;;5005194;28;20477;-46
2021/09/12 12:01:55;;;;;;;2.07;1.80;;;33.00;34.50;;;;;;5007888;28;20467;-45
2021/09/12 12:04:22;;;;;;;1.60;1.50;;;33.00;33.80;;;;;;5009822;28;20943;-45
2021/09/12 12:06:49;;;;;;;1.20;1.10;;;33.20;33.30;;;;;;5006567;28;21308;-45
2021/09/12 12:09:18;;;;;;;2.60;1.60;;;33.30;33.50;;;;;;5005896;28;20963;-46
2021/09/12 12:11:48;;;;;;;1.40;1.30;;;33.40;32.90;;;;;;5007636;28;20441;-47
2021/09/12 12:14:25;;;;;;;1.60;1.50;;;33.30;33.80;;;;;;5008292;28;20468;-46
2021/09/12 12:16:54;;;;;;;2.20;2.10;;;33.40;33.50;;;;;;5005408;28;20893;-45
2021/09/12 12:19:21;;;;;;;2.30;1.93;;;33.50;33.40;;;;;;5002114;28;20441;-46
2021/09/12 12:21:50;;;;;;;2.23;1.70;;;33.50;32.10;;;;;;5005997;28;20449;-46
2021/09/12 12:24:21;;;;;;;1.33;1.23;;;33.40;32.50;;;;;;5002845;28;20453;-46
2021/09/12 12:26:53;;;;;;;1.97;1.70;;;33.60;32.50;;;;;;5000770;28;20441;-47
2021/09/12 12:29:33;;;;;;;1.87;1.77;;;33.70;31.70;;;;;;4999275;28;20453;-46
2021/09/12 12:32:00;;;;;;;2.83;1.67;;;33.70;32.20;;;;;;5003203;28;20504;-48
2021/09/12 12:34:39;;;;;;;2.47;1.50;;;33.70;32.00;;;;;;5008933;28;20468;-50
2021/09/12 12:37:06;;;;;;;2.83;1.70;;;33.80;32.60;;;;;;5012006;28;20455;-48
2021/09/12 12:39:32;;;;;;;1.63;1.53;;;33.70;33.00;;;;;;5004866;28;20436;-48
2021/09/12 12:41:59;;;;;;;1.87;1.27;;;33.90;32.70;;;;;;5005881;28;20441;-47
2021/09/12 12:44:25;;;;;;;1.80;1.70;;;34.00;32.70;;;;;;4998579;28;20516;-45
2021/09/12 12:46:53;;;;;;;1.70;1.60;;;33.90;31.00;;;;;;5000587;28;21068;-46